Yerington, Nevada Weather observations

Data are for observation ending at time listed.
 Day   Time    Ave.   Ave.  Ave.  Vector   Max.   Stn.    Total    Solar   Ave.  
  of    of     Air    Rel.  Wind   Wind    Wind   Baro.  Precip.   Rad.    Soil  
Year   Day     Temp.  Hum.  Speed  Dir.    Gust   Pres.                    Temp. 
2014   (PST)    F      %     mph   deg.    mph     mb.     in.     W/m2     F   
------------------------------------------------------------------------------
 212    8:00   80.2    29    3.2   145      6.8   871.2    0.00     479    80.0
 212    8:10   81.1    27    3.0   128      5.7   871.2    0.00     603    80.1
 212    8:20   81.9    27    3.4   134      7.1   871.1    0.00     619    80.1
 212    8:30   82.5    26    2.8   121      5.7   871.0    0.00     643    80.3
 212    8:40   83.4    26    3.1   118      5.3   870.9    0.00     670    80.6
 212    8:50   83.7    25    2.1   286      4.6   871.0    0.00     692    80.9
 212    9:00   85.1    24    1.7   338      4.0   871.0    0.00     720    81.0
 212    9:10   85.5    24    2.3    14      6.3   871.0    0.00     738    81.3
 212    9:20   85.9    22    2.0    38      5.2   871.0    0.00     724    81.6
 212    9:30   86.1    22    3.1    64      5.6   870.9    0.00     766    82.0
 212    9:40   84.8    23    2.8   330      5.8   870.9    0.00     551    82.5
 212    9:50   85.8    23    2.6     1      5.6   870.8    0.00     827    83.0
 212   10:00   86.4    22    3.7   360      6.3   870.7    0.00     859    83.3
 212   10:10   87.0    21    2.7    38      6.5   870.6    0.00     878    83.6
 212   10:20   88.0    20    2.9    87      7.0   870.5    0.00     893    83.9
 212   10:30   88.6    19    3.0    63      7.2   870.5    0.00     909    84.2
 212   10:40   88.5    18    2.7    86      6.2   870.4    0.00     923    84.7
 212   10:50   89.2    18    2.6     0      6.3   870.3    0.00     936    85.2
 212   11:00   88.6    18    3.2    75      9.8   870.3    0.00     946    85.8
 212   11:10   89.2    18    2.6   287      5.4   870.2    0.00     955    86.4
 212   11:20   89.4    18    2.9    60      5.4   870.0    0.00     964    86.9
 212   11:30   89.7    18    3.2   133      9.3   869.9    0.00     974    87.6
 212   11:40   90.1    17    3.1    68      6.8   869.8    0.00     990    88.2
 212   11:50   90.5    17    3.0    15      6.7   869.8    0.00    1032    88.9
 212   12:00   91.1    16    3.1   347      6.4   869.6    0.00     930    89.5
 212   12:10   91.9    16    2.5    21      6.5   869.5    0.00    1019    90.2
 212   12:20   92.4    15    3.3    20      8.6   869.5    0.00     895    90.7
 212   12:30   92.1    15    3.7    25      8.8   869.4    0.00     922    91.4
 212   12:40   91.6    15    3.5   101      7.3   869.3    0.00     683    92.1
 212   12:50   91.5    15    3.4   296      8.8   869.1    0.00     793    92.9
 212   13:00   91.1    15    3.2    16      6.4   869.0    0.00     439    93.6
 212   13:10   90.3    15    2.5    24      5.4   868.9    0.00     276    94.6
 212   13:20   90.0    16    2.6    14      6.2   868.8    0.00     304    95.4
 212   13:30   90.1    16    2.9   297      6.0   868.7    0.00     321    96.0
 212   13:40   89.2    16    2.8   256      4.2   868.6    0.00     309    96.2
 212   13:50   88.9    17    3.1   230      5.1   868.5    0.00     320    96.2
 212   14:00   89.6    16    2.4   214      4.0   868.3    0.00     482    96.3
 212   14:10   91.5    14    2.8   247      5.6   868.2    0.00     758    96.1
 212   14:20   93.0    14    3.3   205      5.9   868.2    0.00     976    95.5
 212   14:30   92.2    15    3.2   225      5.8   868.1    0.00     373    95.4
 212   14:40   91.0    15    3.0   210      7.2   868.1    0.00     551    96.0
 212   14:50   92.2    14    3.2   240      7.1   868.0    0.00     744    96.3
 212   15:00   93.2    14    3.9   212      7.6   867.8    0.00     821    96.2
 212   15:10   92.7    14    2.9   340      7.6   867.7    0.00     341    96.2
 212   15:20   92.4    14    4.0   132      7.0   867.6    0.00     820    96.7
 212   15:30   93.3    14    4.8   142      9.4   867.5    0.00     586    96.8
 212   15:40   90.8    15    4.6   161      9.4   867.5    0.00     153    97.1
 212   15:50   89.8    16    4.4   149      9.3   867.5    0.00     135    98.1
 212   16:00   89.6    16    3.3   178      6.1   867.5    0.00     134    98.5
 212   16:10   89.6    16    2.8   168      5.6   867.5    0.00     133    98.7
 212   16:20   89.5    17    2.5   182      5.2   867.4    0.00     160    98.8
 212   16:30   90.1    17    3.0   180      6.2   867.4    0.00     175    98.7
 212   16:40   89.7    17    2.2   195      5.1   867.3    0.00     138    98.5
 212   16:50   89.3    18    2.5   165      5.2   867.2    0.00     115    98.3
 212   17:00   88.8    18    2.7   160      5.2   867.1    0.00      68    98.2
 212   17:10   88.1    19    2.2   174      3.8   867.1    0.00      35    98.3
 212   17:20   86.9    22    1.9   246      3.3   867.1    0.00      19    98.2
 212   17:30   85.3    26    1.5   222      3.8   867.2    0.00      13    98.2
 212   17:40   85.0    24    4.5   271     16.3   867.3    0.00      15    98.1
 212   17:50   84.7    23    8.3   306     19.4   867.6    0.00      34    97.9
 212   18:00   83.0    24   10.2   338     20.0   867.8    0.00      89    97.8
 212   18:10   81.8    27    6.9     8     18.0   867.9    0.00     207    97.8
 212   18:20   85.7    20    3.3    40      9.5   867.8    0.00     192    97.2
 212   18:30   85.5    20    2.2    79      5.4   867.9    0.00     132    96.6
 212   18:40   84.7    20    1.9    77      4.5   867.8    0.00     122    96.4
 212   18:50   83.8    24    2.9   313      5.0   867.7    0.00     110    96.3
 212   19:00   83.0    24    3.3   289      6.5   867.7    0.00      73    96.2
 212   19:10   83.2    23    2.8   275      4.7   867.8    0.00      23    96.1
 212   19:20   82.9    24    1.3   322      2.5   868.0    0.00       2    96.0
 212   19:30   81.9    26    0.5    27      1.4   868.1    0.00       0    95.9
 212   19:40   80.0    28    1.1   322      3.7   868.2    0.00       0    95.9
 212   19:50   78.5    33    1.2   294      3.3   868.2    0.00       0    95.8
 212   20:00   78.3    34    0.0     0      0.0   868.3    0.00       0    95.6
 212   20:10   77.7    34    0.8   230      3.6   868.4    0.00       0    95.5
 212   20:20   77.2    32    1.6   165      3.8   868.6    0.00       0    95.3
 212   20:30   77.2    31    1.9   145      3.6   868.7    0.00       0    95.1
 212   20:40   76.5    32    1.2   161      3.1   868.7    0.00       0    94.7
 212   20:50   76.0    34    1.0   320      3.5   868.7    0.00       0    94.4
 212   21:00   75.7    34    1.5    98      3.6   868.8    0.00       0    94.1
 212   21:10   75.5    34    1.2   165      3.0   868.8    0.00       0    93.8
 212   21:20   74.1    36    1.4   146      3.6   868.9    0.00       0    93.6
 212   21:30   74.1    35    1.6   149      2.5   868.9    0.00       0    93.4
 212   21:40   73.7    36    1.7   162      4.2   868.9    0.00       0    93.1
 212   21:50   74.1    35    0.6   187      2.4   868.8    0.00       0    92.8
 212   22:00   73.6    36    1.0   147      2.7   868.9    0.00       0    92.5
 212   22:10   72.9    38    1.4   194      3.3   869.0    0.00       0    92.2
 212   22:20   71.4    42    1.8   196      3.7   869.0    0.00       0    91.9
 212   22:30   70.0    46    1.5   189      2.8   869.1    0.00       0    91.7
 212   22:40   69.5    47    2.3   169      4.1   869.2    0.00       0    91.5
 212   22:50   69.8    45    1.9   183      3.4   869.2    0.00       0    91.2
 212   23:00   69.6    44    2.0   186      3.6   869.2    0.00       0    91.0
 212   23:10   69.4    43    2.0   187      3.9   869.2    0.00       0    90.7
 212   23:20   68.9    45    2.4   206      3.7   869.1    0.00       0    90.4
 212   23:30   68.5    45    2.4   198      4.9   869.1    0.00       0    90.1
 212   23:40   68.4    45    1.3   161      2.6   869.2    0.00       0    89.8
 212   23:50   68.5    45    0.8    47      3.1   869.4    0.00       0    89.6
 213    0:00   69.1    44    1.0   242      3.3   869.5    0.00       0    89.2
 213    0:10   68.1    47    2.5   229      4.0   869.5    0.00       0    88.9
 213    0:20   68.1    47    1.4   256      3.4   869.5    0.00       0    88.6
 213    0:30   68.1    48    0.2   226      1.1   869.5    0.00       0    88.3
 213    0:40   68.4    47    0.5   146      2.7   869.4    0.00       0    88.1
 213    0:50   67.9    48    2.8   123      3.8   869.5    0.00       0    88.0
 213    1:00   67.1    48    2.8   141      4.0   869.5    0.00       0    87.7
 213    1:10   66.6    49    1.7   156      2.6   869.5    0.00       0    87.6
 213    1:20   66.4    49    0.9   185      2.9   869.6    0.00       0    87.5
 213    1:30   65.9    50    3.3   204      6.1   869.6    0.00       0    87.2
 213    1:40   64.7    54    3.6   187      6.0   869.6    0.00       0    87.1
 213    1:50   64.6    53    2.9   171      4.6   869.6    0.00       0    87.0
 213    2:00   64.6    52    2.1   163      4.0   869.5    0.00       0    86.8
 213    2:10   64.5    52    1.3   154      2.7   869.4    0.00       0    86.7
 213    2:20   64.6    51    2.5   143      4.9   869.3    0.00       0    86.6
 213    2:30   64.5    52    2.7   150      4.7   869.3    0.00       0    86.4
 213    2:40   64.0    52    3.0   209      6.4   869.3    0.00       0    86.1
 213    2:50   63.6    54    3.9   200      7.0   869.3    0.00       0    85.9
 213    3:00   64.2    52    2.6   212      6.1   869.4    0.00       0    85.7
 213    3:10   64.0    51    2.3   148      4.0   869.4    0.00       0    85.5
 213    3:20   64.2    49    2.2   153      3.4   869.4    0.00       0    85.3
 213    3:30   64.3    49    2.2   163      3.7   869.3    0.00       0    85.1
 213    3:40   63.8    51    1.9   177      3.5   869.3    0.00       0    85.0
 213    3:50   62.5    54    3.2   186      5.0   869.4    0.00       0    84.8
 213    4:00   61.8    57    3.4   184      5.4   869.5    0.00       0    84.6
 213    4:10   61.8    56    3.1   190      5.3   869.5    0.00       0    84.4
 213    4:20   61.8    56    3.6   184      5.7   869.5    0.00       0    84.4
 213    4:30   62.0    55    3.2   178      4.8   869.5    0.00       0    84.1
 213    4:40   62.1    54    2.9   197      4.2   869.7    0.00       0    83.8
 213    4:50   61.9    54    2.8   212      5.1   869.7    0.00       3    83.6
 213    5:00   60.9    57    2.3   205      4.1   869.6    0.00       8    83.5
 213    5:10   61.2    56    2.9   207      4.8   869.6    0.00      21    83.4
 213    5:20   62.7    52    3.2   200      5.2   869.7    0.00      42    83.2
 213    5:30   64.0    49    2.9   195      5.6   869.7    0.00      78    82.8
 213    5:40   64.9    48    2.5   206      5.6   869.7    0.00     111    82.2
 213    5:50   65.7    47    2.8   205      4.9   869.7    0.00     126    81.6
 213    6:00   65.7    49    3.4   189      5.2   869.7    0.00      99    81.1
 213    6:10   64.8    51    3.1   171      4.8   869.7    0.00      43    81.2
 213    6:20   64.5    53    2.3   192      5.0   869.8    0.00     139    81.4
 213    6:30   66.8    50    2.4   188      4.5   869.7    0.00     203    81.2
 213    6:40   68.8    47    2.5   183      4.8   869.7    0.00     276    80.6
 213    6:50   70.5    43    3.4   177      5.4   869.7    0.00     291    80.0
 213    7:00   72.1    41    2.8   177      7.2   869.8    0.00     286    79.7
 213    7:10   73.5    38    3.3   177      5.8   869.8    0.00     397    79.5
 213    7:20   75.5    35    3.3   163      5.9   869.8    0.00     433    79.2
 213    7:30   76.3    34    3.5   134      5.9   869.8    0.00     406    78.9
 213    7:40   77.1    32    3.1   147      5.4   869.8    0.00     435    79.0
 213    7:50   79.3    30    2.9   160      5.3   869.9    0.00     489    79.1

Return to Yerington, Nevada graphs page.


Western Regional Climate Center,wrcc@dri.edu